This is the latest recevied weather packets stored in our database for station/object VA7NIC-10. If no packets are shown the sender has not sent any weather packets the latest 1 day(s).
| Time | Temp. | Humidity | Pressure | Rain* | Wind** | Luminosity | Snow |
|---|---|---|---|---|---|---|---|
| 1836274345 | 17.22° C | 65% | 1012 hPa | 0 mm | 0 m/s | - | - |
| 1836274195 | 17.22° C | 64% | 1011.8 hPa | 0 mm | 0 m/s | - | - |
| 1778048522 | 12.22° C | 84% | 1014.6 hPa | 0 mm | 0 m/s | - | - |
| 1778047621 | 12.22° C | 83% | 1014.6 hPa | 0 mm | 0 m/s | - | - |
| 1778046721 | 12.22° C | 82% | 1014.5 hPa | 0 mm | 0 m/s | - | - |
| 1778045821 | 12.78° C | 82% | 1014.4 hPa | 0 mm | 0 m/s | - | - |
| 1778044921 | 12.78° C | 80% | 1014.1 hPa | 0 mm | 0 m/s | - | - |
| 1778044021 | 13.33° C | 80% | 1014 hPa | 0 mm | 0 m/s | - | - |
| 1778043121 | 13.89° C | 78% | 1013.9 hPa | 0 mm | 0 m/s | - | - |
| 1778042221 | 13.89° C | 77% | 1013.8 hPa | 0 mm | 0 m/s | - | - |
| 1778041321 | 14.44° C | 76% | 1013.5 hPa | 0 mm | 0 m/s | - | - |
| 1778040421 | 15° C | 75% | 1013.3 hPa | 0 mm | 0 m/s | - | - |
| 1778039521 | 15° C | 74% | 1013 hPa | 0 mm | 0 m/s | - | - |
| 1778038622 | 15.56° C | 72% | 1012.9 hPa | 0 mm | 0 m/s | - | - |
| 1778037722 | 16.11° C | 70% | 1012.8 hPa | 0 mm | 0 m/s | - | - |
| 1778036822 | 16.67° C | 68% | 1012.5 hPa | 0 mm | 0 m/s | - | - |
| 1778035922 | 17.22° C | 68% | 1012.3 hPa | 0 mm | 0 m/s | - | - |
| 1778035022 | 17.78° C | 67% | 1012.2 hPa | 0 mm | 0 m/s | - | - |
| 1778034122 | 18.33° C | 65% | 1012.1 hPa | 0 mm | 0 m/s | - | - |
| 1778033221 | 18.33° C | 65% | 1012 hPa | 0 mm | 0 m/s | - | - |
| 1778032321 | 18.89° C | 65% | 1011.9 hPa | 0 mm | 0 m/s | - | - |
| 1778031421 | 18.89° C | 65% | 1012 hPa | 0 mm | 0 m/s | - | - |
| 1778030521 | 19.44° C | 64% | 1012 hPa | 0 mm | 0 m/s | - | - |
| 1778029621 | 19.44° C | 64% | 1012 hPa | 0 mm | 0 m/s | - | - |
| 1778028721 | 20° C | 64% | 1012.2 hPa | 0 mm | 0 m/s | - | - |
* Rain latest hour (hover to see other rain measurements)
** Current wind speed in m/s (hover to see current wind gust speed)